sensor_id;sensor_type;location;lat;lon;timestamp;temperature;humidity
27781;DHT22;15167;1.318;103.762;2023-08-07T00:01:33;28.50;1.00
27781;DHT22;15167;1.318;103.762;2023-08-07T00:04:00;28.60;1.00
27781;DHT22;15167;1.318;103.762;2023-08-07T00:06:26;28.60;1.00
27781;DHT22;15167;1.318;103.762;2023-08-07T00:08:53;28.60;1.00
27781;DHT22;15167;1.318;103.762;2023-08-07T00:11:20;28.70;1.00
27781;DHT22;15167;1.318;103.762;2023-08-07T00:13:46;28.70;1.00
27781;DHT22;15167;1.318;103.762;2023-08-07T00:16:15;28.70;99.90
27781;DHT22;15167;1.318;103.762;2023-08-07T00:18:42;28.80;99.90
27781;DHT22;15167;1.318;103.762;2023-08-07T00:21:08;28.80;99.90
27781;DHT22;15167;1.318;103.762;2023-08-07T00:23:35;28.90;99.90
27781;DHT22;15167;1.318;103.762;2023-08-07T00:26:01;29.00;99.90
27781;DHT22;15167;1.318;103.762;2023-08-07T00:28:28;29.10;99.90
27781;DHT22;15167;1.318;103.762;2023-08-07T00:30:58;29.10;99.90
27781;DHT22;15167;1.318;103.762;2023-08-07T00:33:25;29.20;99.90
27781;DHT22;15167;1.318;103.762;2023-08-07T00:35:51;29.20;99.90
27781;DHT22;15167;1.318;103.762;2023-08-07T00:38:18;29.30;99.90
27781;DHT22;15167;1.318;103.762;2023-08-07T00:40:44;29.30;99.90
27781;DHT22;15167;1.318;103.762;2023-08-07T00:43:11;29.40;99.90
27781;DHT22;15167;1.318;103.762;2023-08-07T00:45:42;29.40;99.90
27781;DHT22;15167;1.318;103.762;2023-08-07T00:48:09;29.50;99.90
27781;DHT22;15167;1.318;103.762;2023-08-07T00:50:37;29.50;99.90
27781;DHT22;15167;1.318;103.762;2023-08-07T00:53:04;29.50;99.90
27781;DHT22;15167;1.318;103.762;2023-08-07T00:55:32;29.50;99.90
27781;DHT22;15167;1.318;103.762;2023-08-07T00:57:59;29.60;99.90
27781;DHT22;15167;1.318;103.762;2023-08-07T01:00:29;29.60;99.90
27781;DHT22;15167;1.318;103.762;2023-08-07T01:02:59;29.70;88.50
27781;DHT22;15167;1.318;103.762;2023-08-07T01:05:27;29.70;90.80
27781;DHT22;15167;1.318;103.762;2023-08-07T01:07:54;29.70;90.20
27781;DHT22;15167;1.318;103.762;2023-08-07T01:10:51;29.70;68.40
27781;DHT22;15167;1.318;103.762;2023-08-07T01:13:32;29.80;42.90
27781;DHT22;15167;1.318;103.762;2023-08-07T01:16:07;29.90;1.00
27781;DHT22;15167;1.318;103.762;2023-08-07T01:18:36;29.90;4.20
27781;DHT22;15167;1.318;103.762;2023-08-07T01:21:04;30.00;1.00
27781;DHT22;15167;1.318;103.762;2023-08-07T01:23:30;30.00;1.00
27781;DHT22;15167;1.318;103.762;2023-08-07T01:25:57;30.00;1.00
27781;DHT22;15167;1.318;103.762;2023-08-07T01:28:38;30.00;1.00
27781;DHT22;15167;1.318;103.762;2023-08-07T01:31:11;30.00;1.00
27781;DHT22;15167;1.318;103.762;2023-08-07T01:34:02;30.00;1.00
27781;DHT22;15167;1.318;103.762;2023-08-07T01:36:30;30.10;1.00
27781;DHT22;15167;1.318;103.762;2023-08-07T01:38:58;30.10;1.00
27781;DHT22;15167;1.318;103.762;2023-08-07T01:41:26;30.20;1.00
27781;DHT22;15167;1.318;103.762;2023-08-07T01:43:54;30.30;1.00
27781;DHT22;15167;1.318;103.762;2023-08-07T01:46:20;30.30;1.00
27781;DHT22;15167;1.318;103.762;2023-08-07T01:48:47;30.30;1.00
27781;DHT22;15167;1.318;103.762;2023-08-07T01:51:14;30.30;1.00
27781;DHT22;15167;1.318;103.762;2023-08-07T01:53:40;30.40;1.00
27781;DHT22;15167;1.318;103.762;2023-08-07T01:56:07;30.40;99.90
27781;DHT22;15167;1.318;103.762;2023-08-07T01:58:34;30.50;99.90
27781;DHT22;15167;1.318;103.762;2023-08-07T02:01:00;30.60;99.90
27781;DHT22;15167;1.318;103.762;2023-08-07T02:03:27;30.50;99.90
27781;DHT22;15167;1.318;103.762;2023-08-07T02:05:53;30.50;99.90
27781;DHT22;15167;1.318;103.762;2023-08-07T02:08:20;30.60;99.90
27781;DHT22;15167;1.318;103.762;2023-08-07T02:10:46;30.60;99.90
27781;DHT22;15167;1.318;103.762;2023-08-07T02:13:13;30.60;99.90
27781;DHT22;15167;1.318;103.762;2023-08-07T02:15:39;30.60;99.90
27781;DHT22;15167;1.318;103.762;2023-08-07T02:18:06;30.60;99.90
27781;DHT22;15167;1.318;103.762;2023-08-07T02:20:32;30.70;99.90
27781;DHT22;15167;1.318;103.762;2023-08-07T02:22:59;30.80;99.90
27781;DHT22;15167;1.318;103.762;2023-08-07T02:25:25;30.90;99.90
27781;DHT22;15167;1.318;103.762;2023-08-07T02:27:52;30.90;99.90
27781;DHT22;15167;1.318;103.762;2023-08-07T02:30:19;30.90;99.90
27781;DHT22;15167;1.318;103.762;2023-08-07T02:32:45;31.00;99.90
27781;DHT22;15167;1.318;103.762;2023-08-07T02:35:12;31.10;99.90
27781;DHT22;15167;1.318;103.762;2023-08-07T02:37:39;31.20;99.90
27781;DHT22;15167;1.318;103.762;2023-08-07T02:40:05;31.20;99.90
27781;DHT22;15167;1.318;103.762;2023-08-07T02:42:32;31.20;99.90
27781;DHT22;15167;1.318;103.762;2023-08-07T02:44:59;31.30;99.90
27781;DHT22;15167;1.318;103.762;2023-08-07T02:47:25;31.30;99.90
27781;DHT22;15167;1.318;103.762;2023-08-07T02:49:52;31.30;99.90
27781;DHT22;15167;1.318;103.762;2023-08-07T02:52:18;31.40;99.90
27781;DHT22;15167;1.318;103.762;2023-08-07T02:54:45;31.40;99.90
27781;DHT22;15167;1.318;103.762;2023-08-07T02:57:12;31.40;99.90
27781;DHT22;15167;1.318;103.762;2023-08-07T02:59:39;31.40;99.90
27781;DHT22;15167;1.318;103.762;2023-08-07T03:02:05;31.40;99.90
27781;DHT22;15167;1.318;103.762;2023-08-07T03:04:32;31.40;99.90
27781;DHT22;15167;1.318;103.762;2023-08-07T03:06:59;31.30;99.90
27781;DHT22;15167;1.318;103.762;2023-08-07T03:09:26;31.30;99.90
27781;DHT22;15167;1.318;103.762;2023-08-07T03:11:52;31.30;99.90
27781;DHT22;15167;1.318;103.762;2023-08-07T03:14:19;31.40;99.90
27781;DHT22;15167;1.318;103.762;2023-08-07T03:16:45;31.50;99.90
27781;DHT22;15167;1.318;103.762;2023-08-07T03:19:12;31.60;99.90
27781;DHT22;15167;1.318;103.762;2023-08-07T03:21:39;31.70;99.90
27781;DHT22;15167;1.318;103.762;2023-08-07T03:24:05;32.00;99.90
27781;DHT22;15167;1.318;103.762;2023-08-07T03:26:32;32.20;99.90
27781;DHT22;15167;1.318;103.762;2023-08-07T03:28:58;32.10;99.90
27781;DHT22;15167;1.318;103.762;2023-08-07T03:31:25;32.10;99.90
27781;DHT22;15167;1.318;103.762;2023-08-07T03:33:51;32.10;99.90
27781;DHT22;15167;1.318;103.762;2023-08-07T03:36:18;32.10;99.90
27781;DHT22;15167;1.318;103.762;2023-08-07T03:38:44;32.10;99.90
27781;DHT22;15167;1.318;103.762;2023-08-07T03:41:11;32.10;99.90
27781;DHT22;15167;1.318;103.762;2023-08-07T03:43:37;32.20;99.90
27781;DHT22;15167;1.318;103.762;2023-08-07T03:46:04;32.10;99.90
27781;DHT22;15167;1.318;103.762;2023-08-07T03:48:31;32.00;99.90
27781;DHT22;15167;1.318;103.762;2023-08-07T03:51:08;31.90;99.90
27781;DHT22;15167;1.318;103.762;2023-08-07T03:53:34;32.00;99.90
27781;DHT22;15167;1.318;103.762;2023-08-07T03:56:01;32.10;99.90
27781;DHT22;15167;1.318;103.762;2023-08-07T03:58:27;32.20;99.90
27781;DHT22;15167;1.318;103.762;2023-08-07T04:00:54;32.20;99.90
27781;DHT22;15167;1.318;103.762;2023-08-07T04:03:21;32.30;99.90
27781;DHT22;15167;1.318;103.762;2023-08-07T04:05:52;32.40;99.90
27781;DHT22;15167;1.318;103.762;2023-08-07T04:08:20;32.50;99.90
27781;DHT22;15167;1.318;103.762;2023-08-07T04:11:00;32.70;99.90
27781;DHT22;15167;1.318;103.762;2023-08-07T04:13:27;32.70;99.90
27781;DHT22;15167;1.318;103.762;2023-08-07T04:15:54;32.80;99.90
27781;DHT22;15167;1.318;103.762;2023-08-07T04:18:21;32.90;99.90
27781;DHT22;15167;1.318;103.762;2023-08-07T04:20:53;32.90;99.90
27781;DHT22;15167;1.318;103.762;2023-08-07T04:23:20;33.00;99.90
27781;DHT22;15167;1.318;103.762;2023-08-07T04:25:50;33.10;95.60
27781;DHT22;15167;1.318;103.762;2023-08-07T04:28:18;33.10;96.60
27781;DHT22;15167;1.318;103.762;2023-08-07T04:30:45;33.00;93.10
27781;DHT22;15167;1.318;103.762;2023-08-07T04:33:15;33.10;97.20
27781;DHT22;15167;1.318;103.762;2023-08-07T04:35:41;33.10;99.90
27781;DHT22;15167;1.318;103.762;2023-08-07T04:38:07;33.20;97.40
27781;DHT22;15167;1.318;103.762;2023-08-07T04:40:34;33.30;88.00
27781;DHT22;15167;1.318;103.762;2023-08-07T04:43:00;33.50;72.50
27781;DHT22;15167;1.318;103.762;2023-08-07T04:45:28;33.40;77.50
27781;DHT22;15167;1.318;103.762;2023-08-07T04:47:54;33.60;72.30
27781;DHT22;15167;1.318;103.762;2023-08-07T04:50:21;33.70;79.40
27781;DHT22;15167;1.318;103.762;2023-08-07T04:52:47;33.80;88.10
27781;DHT22;15167;1.318;103.762;2023-08-07T04:55:14;33.90;92.40
27781;DHT22;15167;1.318;103.762;2023-08-07T04:57:40;34.10;93.50
27781;DHT22;15167;1.318;103.762;2023-08-07T05:00:08;34.20;83.30
27781;DHT22;15167;1.318;103.762;2023-08-07T05:02:35;34.40;86.00
27781;DHT22;15167;1.318;103.762;2023-08-07T05:05:01;34.70;64.70
27781;DHT22;15167;1.318;103.762;2023-08-07T05:07:28;34.80;69.30
27781;DHT22;15167;1.318;103.762;2023-08-07T05:09:55;35.00;64.40
27781;DHT22;15167;1.318;103.762;2023-08-07T05:12:21;35.30;57.40
27781;DHT22;15167;1.318;103.762;2023-08-07T05:14:48;35.40;43.30
27781;DHT22;15167;1.318;103.762;2023-08-07T05:17:15;35.40;51.00
27781;DHT22;15167;1.318;103.762;2023-08-07T05:19:41;35.40;50.80
27781;DHT22;15167;1.318;103.762;2023-08-07T05:22:08;35.50;44.50
27781;DHT22;15167;1.318;103.762;2023-08-07T05:24:34;35.70;34.70
27781;DHT22;15167;1.318;103.762;2023-08-07T05:27:06;35.80;31.90
27781;DHT22;15167;1.318;103.762;2023-08-07T05:29:34;35.80;35.50
27781;DHT22;15167;1.318;103.762;2023-08-07T05:32:10;35.90;32.40
27781;DHT22;15167;1.318;103.762;2023-08-07T05:34:36;35.90;39.30
27781;DHT22;15167;1.318;103.762;2023-08-07T05:37:03;36.00;53.30
27781;DHT22;15167;1.318;103.762;2023-08-07T05:39:30;35.90;56.10
27781;DHT22;15167;1.318;103.762;2023-08-07T05:41:57;35.90;60.50
27781;DHT22;15167;1.318;103.762;2023-08-07T05:44:24;35.90;60.60
27781;DHT22;15167;1.318;103.762;2023-08-07T05:46:51;35.90;57.50
27781;DHT22;15167;1.318;103.762;2023-08-07T05:49:17;35.90;56.30
27781;DHT22;15167;1.318;103.762;2023-08-07T05:51:44;35.90;55.40
27781;DHT22;15167;1.318;103.762;2023-08-07T05:54:10;35.90;49.30
27781;DHT22;15167;1.318;103.762;2023-08-07T05:56:37;35.90;47.00
27781;DHT22;15167;1.318;103.762;2023-08-07T05:59:04;35.90;41.60
27781;DHT22;15167;1.318;103.762;2023-08-07T06:01:31;35.80;39.00
27781;DHT22;15167;1.318;103.762;2023-08-07T06:03:58;35.80;37.50
27781;DHT22;15167;1.318;103.762;2023-08-07T06:06:27;35.80;34.50
27781;DHT22;15167;1.318;103.762;2023-08-07T06:08:54;35.80;34.70
27781;DHT22;15167;1.318;103.762;2023-08-07T06:11:21;35.70;30.00
27781;DHT22;15167;1.318;103.762;2023-08-07T06:13:49;35.80;33.80
27781;DHT22;15167;1.318;103.762;2023-08-07T06:16:15;35.60;35.20
27781;DHT22;15167;1.318;103.762;2023-08-07T06:18:42;35.50;34.50
27781;DHT22;15167;1.318;103.762;2023-08-07T06:21:08;35.40;34.30
27781;DHT22;15167;1.318;103.762;2023-08-07T06:23:37;35.50;31.60
27781;DHT22;15167;1.318;103.762;2023-08-07T06:26:03;35.50;30.70
27781;DHT22;15167;1.318;103.762;2023-08-07T06:28:34;35.50;29.50
27781;DHT22;15167;1.318;103.762;2023-08-07T06:31:04;35.60;28.50
27781;DHT22;15167;1.318;103.762;2023-08-07T06:33:31;35.60;28.90
27781;DHT22;15167;1.318;103.762;2023-08-07T06:35:59;35.30;28.60
27781;DHT22;15167;1.318;103.762;2023-08-07T06:38:26;35.30;29.70
27781;DHT22;15167;1.318;103.762;2023-08-07T06:40:53;35.30;30.10
27781;DHT22;15167;1.318;103.762;2023-08-07T06:43:19;35.30;31.80
27781;DHT22;15167;1.318;103.762;2023-08-07T06:45:56;35.00;34.90
27781;DHT22;15167;1.318;103.762;2023-08-07T06:48:23;35.00;39.40
27781;DHT22;15167;1.318;103.762;2023-08-07T06:50:50;35.10;36.70
27781;DHT22;15167;1.318;103.762;2023-08-07T06:53:17;34.90;36.20
27781;DHT22;15167;1.318;103.762;2023-08-07T06:55:45;34.90;38.20
27781;DHT22;15167;1.318;103.762;2023-08-07T06:58:11;35.10;39.10
27781;DHT22;15167;1.318;103.762;2023-08-07T07:00:38;35.30;39.20
27781;DHT22;15167;1.318;103.762;2023-08-07T07:03:05;35.60;35.80
27781;DHT22;15167;1.318;103.762;2023-08-07T07:05:33;35.50;34.30
27781;DHT22;15167;1.318;103.762;2023-08-07T07:08:00;35.60;32.90
27781;DHT22;15167;1.318;103.762;2023-08-07T07:10:26;35.70;33.40
27781;DHT22;15167;1.318;103.762;2023-08-07T07:12:53;35.90;33.00
27781;DHT22;15167;1.318;103.762;2023-08-07T07:15:19;36.10;31.20
27781;DHT22;15167;1.318;103.762;2023-08-07T07:17:46;36.30;29.00
27781;DHT22;15167;1.318;103.762;2023-08-07T07:20:13;36.60;28.30
27781;DHT22;15167;1.318;103.762;2023-08-07T07:22:39;36.70;25.50
27781;DHT22;15167;1.318;103.762;2023-08-07T07:25:06;36.90;23.90
27781;DHT22;15167;1.318;103.762;2023-08-07T07:27:33;36.90;21.50
27781;DHT22;15167;1.318;103.762;2023-08-07T07:29:59;37.10;19.50
27781;DHT22;15167;1.318;103.762;2023-08-07T07:32:26;37.20;16.90
27781;DHT22;15167;1.318;103.762;2023-08-07T07:34:52;37.30;16.10
27781;DHT22;15167;1.318;103.762;2023-08-07T07:37:19;37.30;16.60
27781;DHT22;15167;1.318;103.762;2023-08-07T07:39:45;37.40;15.50
27781;DHT22;15167;1.318;103.762;2023-08-07T07:42:12;37.30;14.50
27781;DHT22;15167;1.318;103.762;2023-08-07T07:44:38;37.20;15.20
27781;DHT22;15167;1.318;103.762;2023-08-07T07:47:06;36.90;16.70
27781;DHT22;15167;1.318;103.762;2023-08-07T07:49:33;36.90;18.00
27781;DHT22;15167;1.318;103.762;2023-08-07T07:52:00;36.80;18.30
27781;DHT22;15167;1.318;103.762;2023-08-07T07:54:28;36.60;18.10
27781;DHT22;15167;1.318;103.762;2023-08-07T07:56:55;36.50;17.90
27781;DHT22;15167;1.318;103.762;2023-08-07T07:59:22;36.40;16.40
27781;DHT22;15167;1.318;103.762;2023-08-07T08:01:48;36.30;16.80
27781;DHT22;15167;1.318;103.762;2023-08-07T08:04:15;36.10;17.10
27781;DHT22;15167;1.318;103.762;2023-08-07T08:06:42;36.10;18.50
27781;DHT22;15167;1.318;103.762;2023-08-07T08:09:08;35.90;18.80
27781;DHT22;15167;1.318;103.762;2023-08-07T08:11:35;35.80;20.50
27781;DHT22;15167;1.318;103.762;2023-08-07T08:14:02;35.70;20.50
27781;DHT22;15167;1.318;103.762;2023-08-07T08:16:28;35.70;22.00
27781;DHT22;15167;1.318;103.762;2023-08-07T08:18:55;35.60;22.00
27781;DHT22;15167;1.318;103.762;2023-08-07T08:21:21;35.50;22.10
27781;DHT22;15167;1.318;103.762;2023-08-07T08:23:48;35.50;22.80
27781;DHT22;15167;1.318;103.762;2023-08-07T08:26:14;35.50;23.00
27781;DHT22;15167;1.318;103.762;2023-08-07T08:28:41;35.40;25.00
27781;DHT22;15167;1.318;103.762;2023-08-07T08:31:07;35.30;25.60
27781;DHT22;15167;1.318;103.762;2023-08-07T08:33:34;35.30;25.20
27781;DHT22;15167;1.318;103.762;2023-08-07T08:36:01;35.30;25.50
27781;DHT22;15167;1.318;103.762;2023-08-07T08:38:27;35.20;26.50
27781;DHT22;15167;1.318;103.762;2023-08-07T08:41:00;35.30;26.80
27781;DHT22;15167;1.318;103.762;2023-08-07T08:43:30;35.30;27.10
27781;DHT22;15167;1.318;103.762;2023-08-07T08:45:58;35.20;25.50
27781;DHT22;15167;1.318;103.762;2023-08-07T08:48:25;35.20;16.80
27781;DHT22;15167;1.318;103.762;2023-08-07T08:50:52;35.20;25.20
27781;DHT22;15167;1.318;103.762;2023-08-07T08:53:21;35.20;26.40
27781;DHT22;15167;1.318;103.762;2023-08-07T08:55:48;35.20;26.10
27781;DHT22;15167;1.318;103.762;2023-08-07T08:58:15;35.20;26.00
27781;DHT22;15167;1.318;103.762;2023-08-07T09:00:43;35.30;28.50
27781;DHT22;15167;1.318;103.762;2023-08-07T09:03:09;35.30;26.40
27781;DHT22;15167;1.318;103.762;2023-08-07T09:05:37;35.30;29.80
27781;DHT22;15167;1.318;103.762;2023-08-07T09:08:04;35.40;29.50
27781;DHT22;15167;1.318;103.762;2023-08-07T09:10:32;35.50;29.90
27781;DHT22;15167;1.318;103.762;2023-08-07T09:13:03;35.60;30.40
27781;DHT22;15167;1.318;103.762;2023-08-07T09:15:34;35.50;27.90
27781;DHT22;15167;1.318;103.762;2023-08-07T09:18:05;35.60;25.90
27781;DHT22;15167;1.318;103.762;2023-08-07T09:20:37;35.60;23.10
27781;DHT22;15167;1.318;103.762;2023-08-07T09:23:07;35.40;21.90
27781;DHT22;15167;1.318;103.762;2023-08-07T09:25:35;35.20;21.70
27781;DHT22;15167;1.318;103.762;2023-08-07T09:28:05;35.10;23.30
27781;DHT22;15167;1.318;103.762;2023-08-07T09:30:34;35.00;23.10
27781;DHT22;15167;1.318;103.762;2023-08-07T09:33:01;34.80;22.50
27781;DHT22;15167;1.318;103.762;2023-08-07T09:35:30;34.70;26.10
27781;DHT22;15167;1.318;103.762;2023-08-07T09:38:00;34.80;27.70
27781;DHT22;15167;1.318;103.762;2023-08-07T09:40:27;34.80;28.40
27781;DHT22;15167;1.318;103.762;2023-08-07T09:42:54;34.70;31.60
27781;DHT22;15167;1.318;103.762;2023-08-07T09:45:23;34.20;35.40
27781;DHT22;15167;1.318;103.762;2023-08-07T09:48:03;34.00;42.40
27781;DHT22;15167;1.318;103.762;2023-08-07T09:50:32;34.00;41.30
27781;DHT22;15167;1.318;103.762;2023-08-07T09:52:59;34.10;43.40
27781;DHT22;15167;1.318;103.762;2023-08-07T09:55:26;34.30;46.80
27781;DHT22;15167;1.318;103.762;2023-08-07T09:57:53;34.40;47.50
27781;DHT22;15167;1.318;103.762;2023-08-07T10:00:20;34.40;50.80
27781;DHT22;15167;1.318;103.762;2023-08-07T10:02:51;34.50;50.50
27781;DHT22;15167;1.318;103.762;2023-08-07T10:05:17;34.60;45.90
27781;DHT22;15167;1.318;103.762;2023-08-07T10:07:44;34.90;42.20
27781;DHT22;15167;1.318;103.762;2023-08-07T10:10:12;35.00;40.10
27781;DHT22;15167;1.318;103.762;2023-08-07T10:12:39;35.30;37.90
27781;DHT22;15167;1.318;103.762;2023-08-07T10:15:08;35.30;34.90
27781;DHT22;15167;1.318;103.762;2023-08-07T10:17:34;35.20;36.90
27781;DHT22;15167;1.318;103.762;2023-08-07T10:20:01;35.10;36.90
27781;DHT22;15167;1.318;103.762;2023-08-07T10:22:30;35.00;38.80
27781;DHT22;15167;1.318;103.762;2023-08-07T10:25:01;34.80;42.50
27781;DHT22;15167;1.318;103.762;2023-08-07T10:27:31;34.60;45.10
27781;DHT22;15167;1.318;103.762;2023-08-07T10:30:01;34.40;51.70
27781;DHT22;15167;1.318;103.762;2023-08-07T10:32:28;34.40;57.70
27781;DHT22;15167;1.318;103.762;2023-08-07T10:34:55;34.30;58.90
27781;DHT22;15167;1.318;103.762;2023-08-07T10:37:40;34.10;59.50
27781;DHT22;15167;1.318;103.762;2023-08-07T10:40:09;34.20;56.00
27781;DHT22;15167;1.318;103.762;2023-08-07T10:45:22;34.10;63.20
27781;DHT22;15167;1.318;103.762;2023-08-07T10:48:10;33.90;70.50
27781;DHT22;15167;1.318;103.762;2023-08-07T10:51:06;33.40;91.50
27781;DHT22;15167;1.318;103.762;2023-08-07T10:53:34;33.20;98.00
27781;DHT22;15167;1.318;103.762;2023-08-07T10:56:06;33.00;95.20
27781;DHT22;15167;1.318;103.762;2023-08-07T10:58:35;32.80;99.60
27781;DHT22;15167;1.318;103.762;2023-08-07T11:04:05;32.40;99.90
27781;DHT22;15167;1.318;103.762;2023-08-07T11:06:34;32.30;99.90
27781;DHT22;15167;1.318;103.762;2023-08-07T11:09:02;32.10;99.90
27781;DHT22;15167;1.318;103.762;2023-08-07T11:11:39;32.10;99.90
27781;DHT22;15167;1.318;103.762;2023-08-07T11:14:11;32.10;99.90
27781;DHT22;15167;1.318;103.762;2023-08-07T11:16:37;32.00;99.90
27781;DHT22;15167;1.318;103.762;2023-08-07T11:19:05;31.90;99.90
27781;DHT22;15167;1.318;103.762;2023-08-07T11:21:32;31.90;99.90
27781;DHT22;15167;1.318;103.762;2023-08-07T11:23:59;31.90;99.90
27781;DHT22;15167;1.318;103.762;2023-08-07T11:26:26;31.90;99.90
27781;DHT22;15167;1.318;103.762;2023-08-07T11:28:55;31.90;99.90
27781;DHT22;15167;1.318;103.762;2023-08-07T11:31:22;31.80;99.90
27781;DHT22;15167;1.318;103.762;2023-08-07T11:33:55;31.80;99.90
27781;DHT22;15167;1.318;103.762;2023-08-07T11:36:23;31.70;99.90
27781;DHT22;15167;1.318;103.762;2023-08-07T11:38:50;31.70;99.90
27781;DHT22;15167;1.318;103.762;2023-08-07T11:41:18;31.60;99.90
27781;DHT22;15167;1.318;103.762;2023-08-07T11:43:45;31.40;99.90
27781;DHT22;15167;1.318;103.762;2023-08-07T11:46:14;31.30;99.90
27781;DHT22;15167;1.318;103.762;2023-08-07T11:48:42;31.30;99.90
27781;DHT22;15167;1.318;103.762;2023-08-07T11:51:09;31.20;99.90
27781;DHT22;15167;1.318;103.762;2023-08-07T11:53:37;31.10;99.90
27781;DHT22;15167;1.318;103.762;2023-08-07T11:56:08;31.10;99.90
27781;DHT22;15167;1.318;103.762;2023-08-07T11:58:37;31.10;99.90
27781;DHT22;15167;1.318;103.762;2023-08-07T12:01:10;31.20;99.90
27781;DHT22;15167;1.318;103.762;2023-08-07T12:03:38;31.20;99.90
27781;DHT22;15167;1.318;103.762;2023-08-07T12:06:07;31.10;99.90
27781;DHT22;15167;1.318;103.762;2023-08-07T12:08:37;31.00;99.90
27781;DHT22;15167;1.318;103.762;2023-08-07T12:11:10;31.00;99.90
27781;DHT22;15167;1.318;103.762;2023-08-07T12:13:46;30.90;99.90
27781;DHT22;15167;1.318;103.762;2023-08-07T12:16:14;30.80;99.90
27781;DHT22;15167;1.318;103.762;2023-08-07T12:18:51;30.80;99.90
27781;DHT22;15167;1.318;103.762;2023-08-07T12:21:20;30.80;99.90
27781;DHT22;15167;1.318;103.762;2023-08-07T12:23:50;30.70;99.90
27781;DHT22;15167;1.318;103.762;2023-08-07T12:26:18;30.70;99.90
27781;DHT22;15167;1.318;103.762;2023-08-07T12:28:44;30.70;99.90
27781;DHT22;15167;1.318;103.762;2023-08-07T12:31:11;30.70;99.90
27781;DHT22;15167;1.318;103.762;2023-08-07T12:33:37;30.70;99.90
27781;DHT22;15167;1.318;103.762;2023-08-07T12:36:04;30.70;99.90
27781;DHT22;15167;1.318;103.762;2023-08-07T12:38:31;30.60;99.90
27781;DHT22;15167;1.318;103.762;2023-08-07T12:40:58;30.60;99.90
27781;DHT22;15167;1.318;103.762;2023-08-07T12:43:25;30.50;99.90
27781;DHT22;15167;1.318;103.762;2023-08-07T12:45:52;30.50;99.90
27781;DHT22;15167;1.318;103.762;2023-08-07T12:48:19;30.50;99.90
27781;DHT22;15167;1.318;103.762;2023-08-07T12:50:45;30.50;1.00
27781;DHT22;15167;1.318;103.762;2023-08-07T12:53:12;30.50;1.00
27781;DHT22;15167;1.318;103.762;2023-08-07T12:55:39;30.40;1.00
27781;DHT22;15167;1.318;103.762;2023-08-07T12:58:05;30.40;1.00
27781;DHT22;15167;1.318;103.762;2023-08-07T13:00:32;30.40;1.00
27781;DHT22;15167;1.318;103.762;2023-08-07T13:02:58;30.40;1.00
27781;DHT22;15167;1.318;103.762;2023-08-07T13:05:25;30.30;1.00
27781;DHT22;15167;1.318;103.762;2023-08-07T13:07:51;30.40;1.00
27781;DHT22;15167;1.318;103.762;2023-08-07T13:10:24;30.30;19.20
27781;DHT22;15167;1.318;103.762;2023-08-07T13:12:54;30.10;76.10
27781;DHT22;15167;1.318;103.762;2023-08-07T13:15:21;30.10;99.70
27781;DHT22;15167;1.318;103.762;2023-08-07T13:17:47;30.00;99.90
27781;DHT22;15167;1.318;103.762;2023-08-07T13:20:14;29.90;99.90
27781;DHT22;15167;1.318;103.762;2023-08-07T13:22:41;29.90;99.90
27781;DHT22;15167;1.318;103.762;2023-08-07T13:25:10;29.90;99.90
27781;DHT22;15167;1.318;103.762;2023-08-07T13:27:38;29.90;99.90
27781;DHT22;15167;1.318;103.762;2023-08-07T13:30:06;29.90;99.90
27781;DHT22;15167;1.318;103.762;2023-08-07T13:32:33;30.00;99.90
27781;DHT22;15167;1.318;103.762;2023-08-07T13:35:00;29.90;99.90
27781;DHT22;15167;1.318;103.762;2023-08-07T13:37:26;29.90;88.50
27781;DHT22;15167;1.318;103.762;2023-08-07T13:39:53;29.90;53.00
27781;DHT22;15167;1.318;103.762;2023-08-07T13:42:23;29.80;52.10
27781;DHT22;15167;1.318;103.762;2023-08-07T13:44:50;29.80;80.90
27781;DHT22;15167;1.318;103.762;2023-08-07T13:47:16;29.70;98.50
27781;DHT22;15167;1.318;103.762;2023-08-07T13:49:44;29.60;99.90
27781;DHT22;15167;1.318;103.762;2023-08-07T13:52:10;29.60;99.90
27781;DHT22;15167;1.318;103.762;2023-08-07T13:54:37;29.60;99.90
27781;DHT22;15167;1.318;103.762;2023-08-07T13:57:03;29.60;99.90
27781;DHT22;15167;1.318;103.762;2023-08-07T13:59:30;29.60;99.90
27781;DHT22;15167;1.318;103.762;2023-08-07T14:01:57;29.60;99.90
27781;DHT22;15167;1.318;103.762;2023-08-07T14:04:25;29.50;99.90
27781;DHT22;15167;1.318;103.762;2023-08-07T14:06:52;29.50;99.90
27781;DHT22;15167;1.318;103.762;2023-08-07T14:09:19;29.60;99.90
27781;DHT22;15167;1.318;103.762;2023-08-07T14:11:48;29.50;99.90
27781;DHT22;15167;1.318;103.762;2023-08-07T14:14:15;29.50;99.90
27781;DHT22;15167;1.318;103.762;2023-08-07T14:16:42;29.50;99.90
27781;DHT22;15167;1.318;103.762;2023-08-07T14:19:09;29.40;99.90
27781;DHT22;15167;1.318;103.762;2023-08-07T14:21:35;29.50;99.90
27781;DHT22;15167;1.318;103.762;2023-08-07T14:24:02;29.50;99.90
27781;DHT22;15167;1.318;103.762;2023-08-07T14:26:28;29.60;99.90
27781;DHT22;15167;1.318;103.762;2023-08-07T14:28:55;29.50;99.90
27781;DHT22;15167;1.318;103.762;2023-08-07T14:31:21;29.50;99.90
27781;DHT22;15167;1.318;103.762;2023-08-07T14:33:48;29.50;99.90
27781;DHT22;15167;1.318;103.762;2023-08-07T14:36:15;29.50;99.90
27781;DHT22;15167;1.318;103.762;2023-08-07T14:38:41;29.50;99.90
27781;DHT22;15167;1.318;103.762;2023-08-07T14:41:08;29.50;99.90
27781;DHT22;15167;1.318;103.762;2023-08-07T14:43:34;29.50;99.90
27781;DHT22;15167;1.318;103.762;2023-08-07T14:46:01;29.50;99.90
27781;DHT22;15167;1.318;103.762;2023-08-07T14:48:27;29.50;99.90
27781;DHT22;15167;1.318;103.762;2023-08-07T14:50:54;29.50;99.90
27781;DHT22;15167;1.318;103.762;2023-08-07T14:53:22;29.50;99.90
27781;DHT22;15167;1.318;103.762;2023-08-07T14:55:48;29.50;99.90
27781;DHT22;15167;1.318;103.762;2023-08-07T14:58:15;29.40;99.90
27781;DHT22;15167;1.318;103.762;2023-08-07T15:00:41;29.40;99.90
27781;DHT22;15167;1.318;103.762;2023-08-07T15:03:08;29.40;99.90
27781;DHT22;15167;1.318;103.762;2023-08-07T15:05:35;29.40;99.90
27781;DHT22;15167;1.318;103.762;2023-08-07T15:08:01;29.30;99.90
27781;DHT22;15167;1.318;103.762;2023-08-07T15:10:28;29.30;99.90
27781;DHT22;15167;1.318;103.762;2023-08-07T15:12:55;29.40;99.90
27781;DHT22;15167;1.318;103.762;2023-08-07T15:15:22;29.30;99.90
27781;DHT22;15167;1.318;103.762;2023-08-07T15:17:49;29.30;99.90
27781;DHT22;15167;1.318;103.762;2023-08-07T15:20:15;29.40;1.00
27781;DHT22;15167;1.318;103.762;2023-08-07T15:22:42;29.30;1.00
27781;DHT22;15167;1.318;103.762;2023-08-07T15:25:09;29.20;1.00
27781;DHT22;15167;1.318;103.762;2023-08-07T15:27:35;29.30;1.00